X  Close Metar Aviation Weather Data     YPAD Adelaide International Airport
Temperature
19°C Temperature
3°C Dewpoint
35% Humidity



Wind
21 KM/H
13 MPH
6 M/S
11 KTS



20°
NNE
Current Conditions

Clear Clear
Pressure 1016.92 (hPa) - 30.03 (inHg)
Visibility 6.2 (mile) - 10 (km)
Airport
Airport-code YPAD

Location: Adelaide International Airport
Distance: 20 (km)

Metar:
YPAD 060330Z 02011KT CAVOK 19/03 Q1017

Time: 06-05-2021 1:00 pm ACST